Time;durP1;ratioP1;P1;durP2;ratioP2;P2;SDS_P1;SDS_P2;PMS_P1;PMS_P2;Temp;Humidity;BMP_temperature;BMP_pressure;BME280_temperature;BME280_humidity;BME280_pressure;Samples;Min_cycle;Max_cycle;Signal;HPM_P1;HPM_P2
2023/05/01 07:07:08;;;;;;;;;;;;;;;;;;;;;
2023/05/01 07:10:32;;;;;;;6.43;5.83;;;13.30;49.10;;;;;;6242753;28;20245;-80
2023/05/01 07:13:35;;;;;;;6.63;5.97;;;13.30;48.80;;;;;;6235252;28;20851;-80
2023/05/01 07:16:38;;;;;;;6.10;5.50;;;13.50;48.40;;;;;;6249697;28;20315;-81
2023/05/01 07:19:41;;;;;;;5.47;5.17;;;13.40;48.40;;;;;;6227572;28;20239;-80
2023/05/01 07:22:46;;;;;;;6.17;5.67;;;13.60;49.00;;;;;;6222746;28;20246;-78
2023/05/01 07:25:49;;;;;;;6.67;5.93;;;13.80;48.40;;;;;;6231091;28;20239;-81
2023/05/01 07:28:52;;;;;;;5.83;5.40;;;13.90;48.70;;;;;;6246922;28;20245;-79
2023/05/01 07:31:55;;;;;;;5.73;5.37;;;13.90;48.10;;;;;;6254107;28;20238;-80
2023/05/01 07:34:59;;;;;;;6.17;5.57;;;13.90;47.40;;;;;;6259137;28;20256;-79
2023/05/01 07:38:05;;;;;;;6.33;5.13;;;14.00;48.00;;;;;;6242133;28;20238;-79
2023/05/01 07:41:08;;;;;;;6.03;5.47;;;14.20;47.50;;;;;;6252623;28;20234;-79
2023/05/01 07:44:11;;;;;;;5.23;4.83;;;14.30;47.80;;;;;;6260822;28;20236;-79
2023/05/01 07:47:14;;;;;;;6.23;5.63;;;14.50;47.60;;;;;;6256960;28;20246;-79
2023/05/01 07:50:17;;;;;;;5.97;5.40;;;14.40;47.00;;;;;;6252488;28;20239;-79
2023/05/01 07:53:22;;;;;;;6.13;5.13;;;14.30;47.10;;;;;;6252157;28;20231;-80
2023/05/01 07:56:26;;;;;;;4.73;4.33;;;14.30;47.80;;;;;;6265566;28;20245;-79
2023/05/01 07:59:29;;;;;;;5.33;4.93;;;14.50;47.40;;;;;;6254127;28;20305;-80
2023/05/01 08:02:32;;;;;;;5.97;5.43;;;14.50;48.20;;;;;;6258974;28;20242;-79
2023/05/01 08:05:35;;;;;;;8.37;5.50;;;14.50;47.30;;;;;;6251891;28;20249;-82
2023/05/01 08:08:42;;;;;;;5.13;4.73;;;14.40;47.20;;;;;;6262814;28;20583;-79
2023/05/01 08:11:45;;;;;;;5.50;4.97;;;14.30;47.40;;;;;;6255982;28;20245;-78
2023/05/01 08:14:48;;;;;;;5.40;4.90;;;14.30;47.30;;;;;;6257186;28;20241;-77
2023/05/01 08:17:51;;;;;;;6.07;5.13;;;14.50;47.00;;;;;;6239095;28;20235;-77
2023/05/01 08:20:54;;;;;;;5.17;4.77;;;14.40;47.10;;;;;;6237619;28;20238;-78
2023/05/01 08:23:58;;;;;;;5.00;4.70;;;14.30;46.90;;;;;;6235752;28;20848;-78
2023/05/01 08:27:04;;;;;;;6.43;5.17;;;14.50;46.20;;;;;;6232573;28;20283;-80
2023/05/01 08:30:08;;;;;;;6.00;4.73;;;14.70;46.60;;;;;;6226428;28;20239;-81
2023/05/01 08:33:11;;;;;;;5.50;5.10;;;14.80;46.80;;;;;;6262726;28;20214;-80
2023/05/01 08:36:14;;;;;;;5.87;5.37;;;14.90;46.50;;;;;;6271586;28;20227;-78
2023/05/01 08:39:19;;;;;;;6.50;5.77;;;14.90;47.00;;;;;;6260109;28;20211;-79
2023/05/01 08:42:22;;;;;;;5.30;4.80;;;15.10;47.00;;;;;;6275929;28;20245;-77
2023/05/01 08:45:26;;;;;;;5.27;4.70;;;15.20;46.20;;;;;;6291421;28;20229;-83
2023/05/01 08:48:30;;;;;;;5.87;4.50;;;15.30;45.90;;;;;;6275548;28;20282;-78
2023/05/01 08:51:34;;;;;;;4.83;4.40;;;15.50;46.00;;;;;;6272047;28;20242;-77
2023/05/01 08:54:42;;;;;;;4.87;4.47;;;15.50;45.00;;;;;;6262792;28;20225;-79
2023/05/01 08:57:47;;;;;;;7.17;4.33;;;15.60;45.30;;;;;;6266902;28;20241;-78
2023/05/01 09:00:50;;;;;;;4.57;4.17;;;15.30;45.30;;;;;;6241240;28;20241;-79
2023/05/01 09:03:54;;;;;;;4.27;3.70;;;15.40;44.70;;;;;;6234432;28;20253;-78
2023/05/01 09:06:59;;;;;;;4.17;3.70;;;15.60;44.80;;;;;;6254391;28;20237;-80
2023/05/01 09:10:05;;;;;;;4.60;4.30;;;15.80;43.50;;;;;;6243398;28;20273;-77
2023/05/01 09:13:08;;;;;;;5.13;4.70;;;15.80;44.10;;;;;;6246705;28;20328;-77
2023/05/01 09:16:12;;;;;;;4.60;4.20;;;15.80;44.60;;;;;;6245628;28;20271;-77
2023/05/01 09:19:15;;;;;;;7.70;6.93;;;15.80;43.90;;;;;;6234228;28;20245;-78
2023/05/01 09:22:19;;;;;;;5.60;5.10;;;15.80;45.00;;;;;;6204693;28;20325;-75
2023/05/01 09:25:24;;;;;;;5.57;4.13;;;15.80;44.40;;;;;;6215715;28;20927;-76
2023/05/01 09:28:43;;;;;;;5.40;4.33;;;15.80;43.90;;;;;;6216232;28;20242;-76
2023/05/01 09:31:46;;;;;;;4.47;4.20;;;16.00;43.80;;;;;;6233651;28;20242;-78
2023/05/01 09:34:50;;;;;;;5.00;4.60;;;16.20;44.80;;;;;;6269325;28;20223;-77
2023/05/01 09:37:53;;;;;;;5.13;4.60;;;16.20;44.30;;;;;;6262436;28;20230;-76
2023/05/01 09:41:05;;;;;;;4.70;4.40;;;16.30;44.30;;;;;;6270102;28;20222;-77
2023/05/01 09:44:19;;;;;;;4.93;4.50;;;16.40;43.90;;;;;;6260656;28;20238;-78
2023/05/01 09:47:26;;;;;;;8.60;6.43;;;16.40;44.40;;;;;;6264756;28;20241;-79
2023/05/01 09:50:31;;;;;;;5.50;4.60;;;16.60;44.10;;;;;;6272347;28;20242;-78
2023/05/01 09:53:37;;;;;;;6.60;3.67;;;16.70;43.70;;;;;;6237302;28;20233;-80
2023/05/01 09:56:48;;;;;;;4.50;4.20;;;16.80;43.30;;;;;;6244412;28;20309;-79
2023/05/01 10:00:07;;;;;;;8.27;4.90;;;16.80;43.30;;;;;;6238966;28;20844;-80
2023/05/01 10:03:14;;;;;;;5.07;4.50;;;17.00;43.70;;;;;;6221509;28;20239;-81
2023/05/01 10:06:28;;;;;;;5.43;4.90;;;17.00;43.60;;;;;;6215232;28;20315;-82
2023/05/01 10:09:31;;;;;;;8.10;5.03;;;17.00;43.30;;;;;;6214317;28;20310;-82
2023/05/01 10:12:36;;;;;;;7.07;5.07;;;17.20;43.50;;;;;;6223877;28;20251;-78
2023/05/01 10:15:39;;;;;;;5.33;5.03;;;17.40;42.90;;;;;;6243036;28;20250;-78
2023/05/01 10:18:44;;;;;;;9.17;4.67;;;17.50;43.40;;;;;;6226670;28;20238;-81
2023/05/01 10:21:47;;;;;;;5.00;4.70;;;17.60;43.00;;;;;;6230570;28;20239;-80
2023/05/01 10:24:51;;;;;;;4.83;4.53;;;17.60;43.10;;;;;;6230428;28;20266;-81
2023/05/01 10:27:56;;;;;;;5.10;4.70;;;17.70;43.00;;;;;;6231483;28;20731;-78
2023/05/01 10:31:00;;;;;;;5.03;4.57;;;17.60;43.20;;;;;;6241071;28;20318;-79
2023/05/01 10:34:04;;;;;;;4.80;4.50;;;17.50;42.90;;;;;;6230943;28;20230;-80
2023/05/01 10:37:12;;;;;;;5.27;4.77;;;17.50;43.60;;;;;;6223746;28;20231;-79
2023/05/01 10:40:52;;;;;;;4.67;4.30;;;17.50;44.10;;;;;;6201450;28;20238;-78
2023/05/01 10:44:20;;;;;;;4.87;4.47;;;17.60;43.20;;;;;;6223678;28;20238;-77
2023/05/01 10:47:45;;;;;;;5.13;4.73;;;17.80;42.70;;;;;;6240335;28;20653;-78
2023/05/01 10:51:09;;;;;;;5.37;4.80;;;17.80;43.40;;;;;;6235796;28;20733;-80
2023/05/01 10:54:28;;;;;;;5.03;4.53;;;17.70;43.30;;;;;;6238231;28;20245;-78
2023/05/01 10:57:43;;;;;;;5.00;4.60;;;17.80;42.50;;;;;;6237944;28;20229;-79
2023/05/01 11:01:22;;;;;;;5.57;5.17;;;18.00;42.70;;;;;;6230249;28;20235;-78
2023/05/01 11:04:49;;;;;;;5.83;5.23;;;18.20;43.40;;;;;;6225784;28;20231;-78
2023/05/01 11:08:27;;;;;;;5.67;5.20;;;18.40;43.40;;;;;;6241011;28;20249;-80
2023/05/01 11:11:49;;;;;;;4.77;4.37;;;18.40;42.10;;;;;;6230928;28;20262;-79
2023/05/01 11:15:07;;;;;;;6.03;5.43;;;18.20;42.30;;;;;;6230317;28;20833;-78
2023/05/01 11:18:12;;;;;;;4.93;4.53;;;18.10;41.50;;;;;;6224134;28;20280;-79
2023/05/01 11:21:16;;;;;;;4.80;4.40;;;18.00;41.80;;;;;;6238593;28;20245;-78
2023/05/01 11:24:19;;;;;;;5.77;4.90;;;18.00;42.40;;;;;;6234840;28;20238;-77
2023/05/01 11:27:25;;;;;;;6.63;6.00;;;18.00;41.40;;;;;;6237958;28;20246;-78
2023/05/01 11:30:36;;;;;;;5.37;4.90;;;17.90;41.90;;;;;;6231682;28;20250;-79
2023/05/01 11:33:41;;;;;;;6.93;6.20;;;17.80;41.50;;;;;;6237257;28;20245;-77
2023/05/01 11:36:51;;;;;;;6.30;5.70;;;18.10;42.00;;;;;;6225803;28;20238;-81
2023/05/01 11:39:54;;;;;;;5.37;4.97;;;18.30;41.40;;;;;;6246682;28;20238;-78
2023/05/01 11:43:02;;;;;;;6.17;5.53;;;18.30;41.70;;;;;;6238100;28;20242;-80
2023/05/01 11:46:05;;;;;;;4.93;4.53;;;18.50;42.00;;;;;;6238480;28;20390;-80
2023/05/01 11:49:11;;;;;;;8.07;5.43;;;18.60;41.70;;;;;;6239633;28;20238;-80
2023/05/01 11:52:14;;;;;;;5.43;4.73;;;19.10;41.90;;;;;;6241772;28;20234;-79
2023/05/01 11:55:17;;;;;;;5.90;4.73;;;19.40;41.70;;;;;;6238384;28;20249;-78
2023/05/01 11:58:35;;;;;;;5.77;5.37;;;19.40;41.20;;;;;;6226051;28;20285;-80
2023/05/01 12:01:40;;;;;;;6.13;5.73;;;19.50;40.70;;;;;;6230475;28;20239;-80
2023/05/01 12:04:45;;;;;;;5.70;5.10;;;19.50;40.90;;;;;;6235245;28;20245;-78
2023/05/01 12:07:48;;;;;;;5.70;5.03;;;19.50;40.80;;;;;;6238284;28;20473;-82
2023/05/01 12:10:54;;;;;;;5.53;5.03;;;19.50;41.10;;;;;;6234634;28;20710;-78
2023/05/01 12:13:58;;;;;;;5.73;5.33;;;19.50;40.20;;;;;;6239733;28;20230;-78
2023/05/01 12:17:02;;;;;;;5.13;4.73;;;19.20;40.40;;;;;;6246830;28;20250;-79
2023/05/01 12:20:09;;;;;;;6.40;5.80;;;19.10;40.70;;;;;;6242169;28;20237;-78
2023/05/01 12:23:14;;;;;;;5.60;5.20;;;19.10;41.00;;;;;;6250242;28;20309;-77
2023/05/01 12:26:20;;;;;;;6.93;6.43;;;19.30;41.00;;;;;;6250807;28;20230;-79
2023/05/01 12:29:24;;;;;;;12.77;9.83;;;19.40;40.40;;;;;;6249090;28;20313;-79
2023/05/01 12:32:32;;;;;;;10.63;8.33;;;19.50;40.90;;;;;;6245549;28;20261;-78
2023/05/01 12:35:37;;;;;;;10.93;8.10;;;19.60;40.80;;;;;;6228469;28;20329;-79
2023/05/01 12:38:41;;;;;;;5.67;5.23;;;19.80;41.90;;;;;;6251123;28;20252;-78
2023/05/01 12:41:45;;;;;;;8.87;7.60;;;19.90;40.20;;;;;;6230449;28;20238;-79
2023/05/01 12:45:00;;;;;;;6.30;5.70;;;19.60;40.60;;;;;;6239953;28;20242;-77
2023/05/01 12:48:11;;;;;;;7.93;5.77;;;19.40;40.60;;;;;;6259055;28;20344;-79
2023/05/01 12:51:20;;;;;;;8.23;5.77;;;19.50;41.00;;;;;;6235857;28;20235;-78
2023/05/01 12:54:25;;;;;;;5.73;4.93;;;19.70;40.90;;;;;;6246876;28;20590;-78
2023/05/01 12:57:29;;;;;;;6.27;5.67;;;19.70;41.60;;;;;;6245803;28;20235;-78
2023/05/01 13:00:43;;;;;;;6.40;5.80;;;20.00;40.80;;;;;;6232099;28;20226;-79
2023/05/01 13:03:46;;;;;;;7.50;6.80;;;19.90;41.60;;;;;;6230526;28;20230;-76
2023/05/01 13:06:54;;;;;;;8.20;6.87;;;19.90;41.60;;;;;;6218496;28;20752;-76
2023/05/01 13:09:58;;;;;;;7.67;5.60;;;19.90;41.40;;;;;;6205777;28;20242;-80
2023/05/01 13:13:03;;;;;;;6.43;5.93;;;20.00;40.80;;;;;;6267978;28;20450;-80
2023/05/01 13:16:11;;;;;;;6.93;6.27;;;19.90;40.90;;;;;;6232919;28;20521;-78
2023/05/01 13:19:24;;;;;;;6.97;6.37;;;20.00;40.80;;;;;;6203370;28;20911;-77
2023/05/01 13:22:39;;;;;;;10.13;5.67;;;20.00;40.80;;;;;;6211511;28;20243;-77
2023/05/01 13:25:45;;;;;;;6.03;5.00;;;20.00;40.70;;;;;;6237980;28;20231;-79
2023/05/01 13:28:48;;;;;;;8.73;6.73;;;20.00;40.70;;;;;;6232615;28;20234;-80
2023/05/01 13:31:51;;;;;;;5.90;5.40;;;19.90;40.80;;;;;;6233618;28;20412;-79
2023/05/01 13:34:54;;;;;;;7.10;6.30;;;19.50;41.20;;;;;;6232932;28;20243;-79
2023/05/01 13:38:03;;;;;;;6.97;5.87;;;19.70;41.10;;;;;;6239730;28;20878;-78
2023/05/01 13:41:06;;;;;;;5.37;5.07;;;19.70;41.00;;;;;;6236417;28;20836;-78
2023/05/01 13:44:12;;;;;;;6.27;5.67;;;19.50;41.40;;;;;;6236380;28;20241;-79
2023/05/01 13:47:17;;;;;;;6.03;5.53;;;19.70;41.00;;;;;;6222693;28;20235;-78
2023/05/01 13:50:21;;;;;;;6.70;6.20;;;19.70;41.50;;;;;;6233915;28;20316;-77
2023/05/01 13:53:25;;;;;;;6.87;6.17;;;19.70;41.50;;;;;;6217285;28;20834;-78
2023/05/01 13:56:28;;;;;;;6.90;5.77;;;19.60;41.50;;;;;;6202807;28;20232;-77
2023/05/01 13:59:37;;;;;;;5.90;5.53;;;19.70;41.50;;;;;;6210791;28;20231;-78
2023/05/01 14:02:43;;;;;;;12.50;6.43;;;19.80;41.10;;;;;;6204367;28;20767;-76
2023/05/01 14:05:47;;;;;;;8.20;6.20;;;20.00;41.00;;;;;;6236080;28;20238;-78
2023/05/01 14:08:53;;;;;;;7.20;5.60;;;20.10;41.00;;;;;;6238678;28;20655;-78
2023/05/01 14:11:57;;;;;;;5.77;5.27;;;20.10;40.30;;;;;;6239049;28;20239;-77
2023/05/01 14:15:01;;;;;;;5.93;5.50;;;20.30;40.60;;;;;;6233740;28;20231;-79
2023/05/01 14:18:06;;;;;;;5.87;5.43;;;20.30;40.60;;;;;;6231441;28;20250;-77
2023/05/01 14:21:09;;;;;;;8.00;6.40;;;20.40;40.90;;;;;;6233588;28;20359;-78
2023/05/01 14:24:14;;;;;;;7.47;6.07;;;20.50;39.90;;;;;;6222584;28;20227;-78
2023/05/01 14:27:19;;;;;;;5.80;5.40;;;20.50;39.80;;;;;;6248830;28;20319;-81
2023/05/01 14:30:27;;;;;;;6.80;6.30;;;20.50;40.00;;;;;;6241156;28;20360;-79
2023/05/01 14:33:30;;;;;;;5.97;5.43;;;20.50;40.00;;;;;;6224709;28;20303;-78
2023/05/01 14:36:33;;;;;;;8.00;7.30;;;20.50;40.10;;;;;;6227089;28;20233;-77
2023/05/01 14:39:39;;;;;;;6.13;5.73;;;20.50;40.10;;;;;;6218921;28;20246;-78
2023/05/01 14:42:43;;;;;;;7.17;5.93;;;20.50;39.70;;;;;;6205279;28;20239;-79
2023/05/01 14:45:48;;;;;;;6.87;5.70;;;20.50;40.00;;;;;;6233214;28;20956;-78
2023/05/01 14:48:51;;;;;;;6.10;5.53;;;20.50;40.50;;;;;;6231545;28;20242;-79
2023/05/01 14:51:54;;;;;;;6.27;5.63;;;20.50;40.20;;;;;;6249690;28;20249;-78
2023/05/01 14:54:59;;;;;;;7.70;6.90;;;20.60;39.70;;;;;;6234763;28;20226;-79
2023/05/01 14:58:02;;;;;;;8.33;6.30;;;20.50;40.40;;;;;;6246633;28;20266;-77
2023/05/01 15:01:06;;;;;;;8.60;6.63;;;20.40;40.20;;;;;;6229883;28;20246;-76
2023/05/01 15:04:10;;;;;;;7.60;6.40;;;20.30;40.70;;;;;;6231280;28;20949;-75
2023/05/01 15:07:14;;;;;;;7.00;6.20;;;20.00;40.90;;;;;;6235506;28;20241;-76
2023/05/01 15:10:19;;;;;;;7.87;5.80;;;20.00;40.70;;;;;;6230572;28;20238;-77
2023/05/01 15:13:22;;;;;;;8.53;7.23;;;20.10;40.70;;;;;;6240707;28;20230;-78
2023/05/01 15:16:25;;;;;;;9.27;6.07;;;20.00;40.90;;;;;;6237512;28;20799;-76
2023/05/01 15:19:29;;;;;;;5.97;5.57;;;20.00;40.80;;;;;;6238581;28;20262;-78
2023/05/01 15:22:32;;;;;;;6.90;6.37;;;19.90;41.50;;;;;;6256054;28;20258;-77
2023/05/01 15:25:36;;;;;;;7.27;6.67;;;19.70;41.70;;;;;;6233455;28;20265;-78
2023/05/01 15:28:39;;;;;;;6.93;6.43;;;19.60;42.10;;;;;;6248870;28;20336;-78
2023/05/01 15:31:42;;;;;;;6.37;5.97;;;19.70;42.10;;;;;;6248961;28;20297;-77
2023/05/01 15:34:46;;;;;;;7.50;6.80;;;19.70;41.50;;;;;;6257448;28;20284;-79
2023/05/01 15:37:49;;;;;;;8.80;7.00;;;19.70;42.00;;;;;;6245054;28;20555;-79
2023/05/01 15:40:55;;;;;;;10.13;7.10;;;19.70;41.80;;;;;;6253590;28;20259;-78
2023/05/01 15:43:58;;;;;;;9.47;7.63;;;19.50;41.70;;;;;;6245255;28;20243;-77
2023/05/01 15:47:01;;;;;;;8.50;6.40;;;19.70;41.90;;;;;;6240178;28;20238;-78
2023/05/01 15:50:07;;;;;;;6.87;6.23;;;19.70;41.60;;;;;;6242686;28;20250;-78
2023/05/01 15:53:11;;;;;;;7.00;6.40;;;19.70;41.70;;;;;;6237527;28;20255;-77
2023/05/01 15:56:18;;;;;;;9.33;6.80;;;19.70;42.00;;;;;;6245563;28;20673;-77
2023/05/01 15:59:21;;;;;;;8.13;6.53;;;19.70;41.40;;;;;;6241721;28;20245;-80
2023/05/01 16:02:25;;;;;;;7.07;6.37;;;19.70;41.50;;;;;;6249053;28;20231;-79
2023/05/01 16:05:29;;;;;;;6.80;6.00;;;19.60;42.00;;;;;;6251762;28;20324;-76
2023/05/01 16:08:33;;;;;;;8.13;7.07;;;19.50;41.70;;;;;;6238039;28;20696;-77
2023/05/01 16:11:37;;;;;;;9.47;6.40;;;19.40;41.80;;;;;;6246920;28;20241;-78
2023/05/01 16:14:40;;;;;;;11.37;10.20;;;19.30;42.00;;;;;;6238553;28;20235;-76
2023/05/01 16:17:45;;;;;;;7.00;6.30;;;19.10;42.50;;;;;;6237385;28;20242;-81
2023/05/01 16:20:52;;;;;;;7.77;6.00;;;19.10;42.40;;;;;;6235410;28;20257;-78
2023/05/01 16:23:56;;;;;;;7.60;7.00;;;19.10;42.30;;;;;;6233015;28;20246;-78
2023/05/01 16:27:01;;;;;;;8.07;7.47;;;19.20;42.00;;;;;;6244817;28;20240;-82
2023/05/01 16:30:06;;;;;;;7.10;6.37;;;19.00;42.50;;;;;;6237505;28;20259;-80
2023/05/01 16:33:15;;;;;;;7.07;6.57;;;19.10;42.20;;;;;;6237630;28;20227;-79
2023/05/01 16:36:22;;;;;;;7.20;6.47;;;19.00;41.90;;;;;;6225922;28;20773;-78
2023/05/01 16:39:25;;;;;;;11.07;8.70;;;19.00;42.10;;;;;;6237847;28;20249;-79
2023/05/01 16:42:30;;;;;;;8.63;7.87;;;18.90;42.70;;;;;;6227663;28;20246;-79
2023/05/01 16:45:33;;;;;;;9.10;8.30;;;18.80;43.00;;;;;;6240734;28;20249;-76
2023/05/01 16:48:36;;;;;;;7.03;6.47;;;18.90;42.80;;;;;;6240680;28;20251;-76
2023/05/01 16:51:40;;;;;;;10.40;8.50;;;18.90;42.60;;;;;;6246302;28;20321;-80
2023/05/01 16:54:43;;;;;;;8.87;8.07;;;18.70;43.10;;;;;;6234219;28;20238;-78
2023/05/01 16:57:48;;;;;;;8.50;7.00;;;18.70;42.70;;;;;;6238596;28;20238;-81
2023/05/01 17:00:51;;;;;;;7.07;6.33;;;18.60;43.00;;;;;;6240401;28;20888;-79
2023/05/01 17:03:54;;;;;;;8.37;7.63;;;18.60;43.00;;;;;;6241853;28;20250;-79
2023/05/01 17:06:58;;;;;;;11.53;10.13;;;18.60;42.60;;;;;;6237474;28;20235;-79
2023/05/01 17:10:02;;;;;;;11.43;10.23;;;18.50;43.20;;;;;;6241571;28;20392;-80
2023/05/01 17:13:07;;;;;;;11.17;9.40;;;18.40;43.70;;;;;;6235470;28;20235;-80
2023/05/01 17:16:10;;;;;;;10.60;9.10;;;18.30;43.60;;;;;;6236032;28;20245;-80
2023/05/01 17:19:13;;;;;;;9.13;8.33;;;18.30;43.40;;;;;;6228544;28;20234;-78
2023/05/01 17:22:16;;;;;;;8.40;7.60;;;18.20;43.50;;;;;;6237016;28;20246;-80
2023/05/01 17:25:19;;;;;;;10.13;9.13;;;18.10;43.50;;;;;;6226798;28;20231;-81
2023/05/01 17:28:24;;;;;;;11.20;9.93;;;18.10;43.70;;;;;;6219868;28;20251;-81
2023/05/01 17:31:28;;;;;;;11.53;10.33;;;18.00;43.60;;;;;;6215192;28;20463;-82
2023/05/01 17:34:31;;;;;;;14.83;10.47;;;18.00;43.70;;;;;;6212413;28;20749;-83
2023/05/01 17:37:38;;;;;;;9.93;8.93;;;17.80;43.90;;;;;;6214806;28;20263;-83
2023/05/01 17:40:41;;;;;;;9.23;8.33;;;17.80;44.00;;;;;;6216119;28;20331;-84
2023/05/01 17:43:45;;;;;;;10.10;8.87;;;17.60;44.10;;;;;;6217028;28;20262;-85
2023/05/01 17:46:49;;;;;;;10.97;9.77;;;17.50;44.40;;;;;;6223013;28;20243;-83
2023/05/01 17:49:53;;;;;;;10.67;9.57;;;17.50;44.50;;;;;;6213753;28;20246;-86
2023/05/01 17:52:56;;;;;;;13.43;11.47;;;17.40;44.70;;;;;;6221531;28;20260;-86
2023/05/01 17:56:02;;;;;;;12.70;11.37;;;17.20;44.90;;;;;;6235382;28;20243;-82
2023/05/01 17:59:07;;;;;;;12.90;10.30;;;17.20;44.90;;;;;;6241840;28;20239;-83
2023/05/01 18:02:10;;;;;;;10.80;9.70;;;17.10;44.90;;;;;;6235741;28;20243;-85
2023/05/01 18:05:14;;;;;;;10.27;9.37;;;17.00;45.20;;;;;;6237193;28;20227;-84
2023/05/01 18:08:17;;;;;;;9.40;8.60;;;17.00;45.20;;;;;;6233535;28;20234;-84
2023/05/01 18:11:20;;;;;;;9.07;8.23;;;16.90;45.40;;;;;;6240161;28;20262;-86
2023/05/01 18:14:25;;;;;;;9.07;8.27;;;16.80;45.70;;;;;;6249911;28;20281;-85
2023/05/01 18:17:28;;;;;;;11.40;10.30;;;16.70;45.80;;;;;;6249910;28;20243;-86
2023/05/01 18:20:31;;;;;;;12.53;10.50;;;16.60;46.10;;;;;;6249290;28;20246;-86
2023/05/01 18:23:35;;;;;;;11.67;10.43;;;16.50;46.30;;;;;;6228511;28;20241;-86
2023/05/01 18:26:38;;;;;;;11.73;10.73;;;16.40;46.50;;;;;;6229879;28;20246;-85
2023/05/01 18:29:43;;;;;;;14.30;12.40;;;16.30;46.70;;;;;;6216840;28;20735;-86
2023/05/01 18:32:46;;;;;;;14.67;12.93;;;16.10;47.00;;;;;;6232968;28;20249;-86
2023/05/01 18:35:51;;;;;;;12.77;11.50;;;16.00;47.30;;;;;;6229952;28;20238;-86
2023/05/01 18:38:54;;;;;;;13.67;12.03;;;15.90;47.50;;;;;;6236240;28;20805;-84
2023/05/01 18:41:57;;;;;;;13.90;12.37;;;15.80;47.80;;;;;;6238427;28;20273;-87
2023/05/01 18:45:02;;;;;;;15.37;13.60;;;15.70;48.10;;;;;;6244942;28;20262;-84
2023/05/01 18:48:07;;;;;;;14.27;12.87;;;15.60;48.30;;;;;;6246307;28;20241;-85
2023/05/01 18:51:10;;;;;;;15.50;13.10;;;15.50;48.50;;;;;;6233913;28;20317;-85
2023/05/01 18:54:13;;;;;;;13.87;12.50;;;15.40;48.80;;;;;;6242247;28;20679;-83
2023/05/01 18:57:16;;;;;;;14.83;13.17;;;15.40;49.00;;;;;;6247861;28;20312;-83
2023/05/01 19:00:24;;;;;;;14.23;12.83;;;15.30;49.10;;;;;;6246954;28;20239;-85
2023/05/01 19:03:28;;;;;;;14.97;13.50;;;15.20;49.30;;;;;;6219651;28;20243;-85
2023/05/01 19:06:31;;;;;;;15.80;14.20;;;15.20;49.50;;;;;;6214533;28;20235;-84
2023/05/01 19:09:34;;;;;;;15.90;14.13;;;15.00;49.60;;;;;;6215525;28;20615;-84
2023/05/01 19:12:38;;;;;;;17.63;15.50;;;15.00;49.80;;;;;;6215648;28;20449;-85
2023/05/01 19:15:42;;;;;;;19.13;16.23;;;14.90;49.90;;;;;;6258739;28;20250;-83
2023/05/01 19:18:45;;;;;;;21.60;17.10;;;14.90;50.00;;;;;;6260336;28;20321;-83
2023/05/01 19:21:50;;;;;;;18.23;16.07;;;14.80;50.30;;;;;;6242219;28;20258;-81
2023/05/01 19:24:53;;;;;;;20.53;16.57;;;14.70;50.40;;;;;;6234869;28;20238;-82
2023/05/01 19:27:56;;;;;;;18.03;16.13;;;14.70;50.60;;;;;;6226847;28;20289;-84
2023/05/01 19:31:01;;;;;;;21.80;18.20;;;14.60;50.90;;;;;;6210444;28;20231;-85
2023/05/01 19:34:04;;;;;;;20.37;18.27;;;14.50;51.20;;;;;;6217311;28;20234;-85
2023/05/01 19:37:07;;;;;;;19.07;17.03;;;14.50;51.50;;;;;;6218676;28;20508;-81
2023/05/01 19:40:11;;;;;;;22.03;18.70;;;14.50;51.60;;;;;;6214862;28;20244;-80
2023/05/01 19:43:14;;;;;;;22.57;19.37;;;14.40;51.70;;;;;;6206920;28;20233;-78
2023/05/01 19:46:19;;;;;;;22.53;18.90;;;14.40;51.90;;;;;;6234157;28;20252;-78
2023/05/01 19:49:23;;;;;;;23.07;20.67;;;14.40;52.00;;;;;;6242586;28;20239;-78
2023/05/01 19:52:26;;;;;;;25.10;20.20;;;14.30;52.20;;;;;;6229912;28;20239;-81
2023/05/01 19:55:30;;;;;;;21.37;19.07;;;14.30;52.30;;;;;;6230494;28;20230;-78
2023/05/01 19:58:33;;;;;;;20.63;18.43;;;14.30;52.60;;;;;;6229958;28;20238;-78
2023/05/01 20:01:40;;;;;;;27.03;20.33;;;14.20;52.80;;;;;;6236621;28;20243;-79
2023/05/01 20:04:43;;;;;;;23.03;19.63;;;14.20;52.90;;;;;;6236514;28;20239;-78
2023/05/01 20:07:46;;;;;;;24.57;20.93;;;14.10;53.00;;;;;;6237694;28;20317;-81
2023/05/01 20:10:52;;;;;;;24.33;21.40;;;14.10;53.20;;;;;;6246188;28;20688;-80
2023/05/01 20:13:55;;;;;;;23.60;20.57;;;14.00;53.30;;;;;;6240958;28;20246;-79
2023/05/01 20:16:59;;;;;;;28.00;22.10;;;14.00;53.50;;;;;;6248025;28;21068;-80
2023/05/01 20:20:03;;;;;;;22.77;20.37;;;14.00;53.60;;;;;;6225217;28;20243;-78
2023/05/01 20:23:10;;;;;;;23.13;20.57;;;13.90;53.70;;;;;;6239869;28;20246;-79
2023/05/01 20:26:13;;;;;;;21.93;19.60;;;13.90;53.70;;;;;;6234631;28;20235;-80
2023/05/01 20:29:16;;;;;;;20.50;18.30;;;13.90;54.00;;;;;;6240238;28;20232;-80
2023/05/01 20:32:21;;;;;;;25.33;19.60;;;13.90;54.30;;;;;;6247100;28;20245;-81
2023/05/01 20:35:24;;;;;;;25.07;18.00;;;13.90;54.50;;;;;;6254631;28;20292;-77
2023/05/01 20:38:27;;;;;;;19.57;17.47;;;13.90;54.70;;;;;;6258456;28;20311;-76
2023/05/01 20:41:30;;;;;;;18.00;16.17;;;13.90;55.00;;;;;;6261157;28;20219;-76
2023/05/01 20:44:33;;;;;;;17.37;15.67;;;13.90;54.80;;;;;;6272460;28;20286;-77
2023/05/01 20:47:38;;;;;;;19.43;15.03;;;13.90;54.80;;;;;;6258064;28;20256;-81
2023/05/01 20:50:42;;;;;;;17.50;15.53;;;13.90;54.80;;;;;;6273259;28;20235;-77
2023/05/01 20:53:45;;;;;;;20.83;15.27;;;13.90;54.80;;;;;;6262539;28;20291;-77
2023/05/01 20:56:48;;;;;;;18.70;15.00;;;13.90;54.90;;;;;;6261227;28;20263;-77
2023/05/01 20:59:51;;;;;;;15.00;13.53;;;13.90;55.00;;;;;;6257184;28;20274;-79
2023/05/01 21:02:57;;;;;;;13.60;12.30;;;13.90;54.80;;;;;;6240041;28;20752;-79
2023/05/01 21:06:01;;;;;;;15.27;13.10;;;13.90;54.80;;;;;;6228238;28;20923;-80
2023/05/01 21:09:07;;;;;;;14.03;12.53;;;13.80;54.80;;;;;;6225818;28;20238;-80
2023/05/01 21:12:10;;;;;;;17.73;13.67;;;13.90;54.90;;;;;;6252287;28;20242;-79
2023/05/01 21:15:13;;;;;;;13.87;12.47;;;13.80;54.80;;;;;;6231146;28;20289;-80
2023/05/01 21:18:19;;;;;;;12.23;11.03;;;13.80;54.90;;;;;;6235946;28;20249;-79
2023/05/01 21:21:23;;;;;;;13.60;12.03;;;13.80;54.90;;;;;;6234208;28;20253;-81
2023/05/01 21:24:26;;;;;;;11.87;10.77;;;13.80;54.90;;;;;;6240278;28;20355;-81
2023/05/01 21:27:29;;;;;;;12.97;11.70;;;13.80;54.90;;;;;;6234694;28;20733;-82
2023/05/01 21:30:34;;;;;;;11.97;10.87;;;13.90;55.00;;;;;;6239812;28;20238;-80
2023/05/01 21:33:39;;;;;;;11.33;10.40;;;13.90;55.00;;;;;;6261969;28;20223;-79
2023/05/01 21:36:43;;;;;;;11.57;10.37;;;13.80;55.00;;;;;;6241060;28;20238;-79
2023/05/01 21:39:46;;;;;;;11.90;10.70;;;13.90;54.90;;;;;;6249609;28;20759;-78
2023/05/01 21:42:51;;;;;;;12.20;10.83;;;13.80;54.80;;;;;;6233330;28;20235;-76
2023/05/01 21:45:54;;;;;;;10.57;9.53;;;13.80;54.90;;;;;;6237317;28;20243;-77
2023/05/01 21:48:58;;;;;;;11.53;10.43;;;13.80;55.00;;;;;;6244245;28;20267;-79
2023/05/01 21:52:02;;;;;;;10.13;8.80;;;13.80;55.00;;;;;;6236897;28;20242;-79
2023/05/01 21:55:08;;;;;;;10.47;9.43;;;13.90;53.80;;;;;;6234755;28;20232;-81
2023/05/01 21:58:13;;;;;;;10.13;7.90;;;13.90;54.00;;;;;;6217595;28;20239;-79
2023/05/01 22:01:16;;;;;;;9.30;8.50;;;13.90;53.00;;;;;;6250434;28;20952;-78
2023/05/01 22:04:21;;;;;;;8.37;7.67;;;13.90;52.90;;;;;;6223033;28;20234;-78
2023/05/01 22:07:24;;;;;;;12.10;7.60;;;13.90;52.50;;;;;;6212730;28;20243;-79
2023/05/01 22:10:28;;;;;;;9.17;8.37;;;13.90;52.40;;;;;;6204373;28;20243;-81
2023/05/01 22:13:33;;;;;;;7.83;7.27;;;13.90;52.10;;;;;;6220262;28;20241;-80
2023/05/01 22:16:36;;;;;;;8.17;7.53;;;13.90;52.30;;;;;;6203592;28;20355;-81
2023/05/01 22:19:40;;;;;;;8.17;7.57;;;13.90;52.20;;;;;;6213515;28;20753;-82
2023/05/01 22:22:44;;;;;;;7.17;6.57;;;14.00;51.20;;;;;;6215676;28;20254;-79
2023/05/01 22:25:47;;;;;;;7.83;7.33;;;13.90;51.20;;;;;;6210871;28;20239;-77
2023/05/01 22:28:50;;;;;;;7.87;7.17;;;14.00;50.60;;;;;;6214812;28;20235;-81
2023/05/01 22:31:53;;;;;;;7.70;7.07;;;14.00;50.20;;;;;;6213228;28;20247;-82
2023/05/01 22:34:57;;;;;;;7.33;6.83;;;14.10;49.60;;;;;;6215368;28;20441;-81
2023/05/01 22:38:00;;;;;;;7.47;6.97;;;14.20;49.00;;;;;;6207816;28;20709;-78
2023/05/01 22:41:03;;;;;;;7.60;7.10;;;14.20;48.80;;;;;;6206755;28;20250;-81
2023/05/01 22:44:07;;;;;;;7.33;6.83;;;14.20;48.90;;;;;;6215743;28;20239;-80
2023/05/01 22:47:09;;;;;;;8.03;7.17;;;14.20;48.90;;;;;;6213515;28;20719;-82
2023/05/01 22:50:14;;;;;;;7.67;6.97;;;14.20;48.80;;;;;;6216210;28;20265;-80
2023/05/01 22:53:17;;;;;;;7.27;6.87;;;14.20;48.60;;;;;;6214378;28;20481;-82
2023/05/01 22:56:20;;;;;;;8.43;7.63;;;14.20;48.60;;;;;;6219332;28;20238;-81
2023/05/01 22:59:24;;;;;;;9.37;7.30;;;14.20;48.60;;;;;;6210523;28;20233;-80
2023/05/01 23:02:27;;;;;;;8.13;7.47;;;14.30;47.70;;;;;;6203325;28;20266;-80
2023/05/01 23:05:32;;;;;;;8.50;7.63;;;14.40;47.70;;;;;;6212688;28;20254;-79